Time;durP1;ratioP1;P1;durP2;ratioP2;P2;SDS_P1;SDS_P2;PMS_P1;PMS_P2;Temp;Humidity;BMP_temperature;BMP_pressure;BME280_temperature;BME280_humidity;BME280_pressure;Samples;Min_cycle;Max_cycle;Signal;HPM_P1;HPM_P2
2022/01/01 00:01:09;;;;;;;4.57;2.80;;;;;;;;;;4796336;29;20581;-84
2022/01/01 00:04:14;;;;;;;4.77;3.00;;;;;;;;;;4787521;29;20204;-85
2022/01/01 00:07:18;;;;;;;4.97;3.33;;;;;;;;;;4786860;29;20213;-85
2022/01/01 00:10:22;;;;;;;3.90;2.70;;;;;;;;;;4807841;29;20197;-84
2022/01/01 00:13:26;;;;;;;4.43;2.93;;;;;;;;;;4786483;29;20185;-84
2022/01/01 00:16:31;;;;;;;4.40;3.03;;;;;;;;;;4786976;29;20228;-84
2022/01/01 00:19:35;;;;;;;4.70;2.77;;;;;;;;;;4776632;29;20565;-84
2022/01/01 00:22:40;;;;;;;4.43;3.27;;;;;;;;;;4787016;29;20184;-84
2022/01/01 00:25:44;;;;;;;6.53;3.17;;;;;;;;;;4796325;29;20220;-84
2022/01/01 00:28:49;;;;;;;5.40;3.73;;;;;;;;;;4775690;29;20216;-84
2022/01/01 00:31:53;;;;;;;4.80;3.33;;;;;;;;;;4796457;29;20542;-86
2022/01/01 00:34:57;;;;;;;7.13;4.37;;;;;;;;;;4806700;29;20693;-85
2022/01/01 00:38:01;;;;;;;4.47;3.40;;;;;;;;;;4785284;29;20189;-86
2022/01/01 00:41:05;;;;;;;5.13;3.80;;;;;;;;;;4805965;29;20189;-86
2022/01/01 00:44:09;;;;;;;5.77;3.80;;;;;;;;;;4806246;29;20185;-86
2022/01/01 00:47:13;;;;;;;6.33;3.37;;;;;;;;;;4784977;29;20256;-86
2022/01/01 00:50:17;;;;;;;7.57;4.27;;;;;;;;;;4790463;29;20202;-89
2022/01/01 00:53:21;;;;;;;7.67;3.90;;;;;;;;;;4767554;30;20202;-84
2022/01/01 00:57:23;;;;;;;5.40;3.63;;;;;;;;;;4776442;29;20228;-85
2022/01/01 01:01:06;;;;;;;6.93;4.13;;;;;;;;;;4778069;30;20565;-84
2022/01/01 01:04:10;;;;;;;6.50;4.60;;;;;;;;;;4768347;30;20190;-84
2022/01/01 01:07:15;;;;;;;6.63;4.03;;;;;;;;;;4756980;30;20213;-86
2022/01/01 01:10:20;;;;;;;8.97;4.83;;;;;;;;;;4766924;30;20194;-86
2022/01/01 01:13:29;;;;;;;5.87;4.50;;;;;;;;;;4770433;30;20186;-84
2022/01/01 01:16:33;;;;;;;7.47;4.20;;;;;;;;;;4771099;30;20225;-84
2022/01/01 01:19:37;;;;;;;8.97;4.90;;;;;;;;;;4781882;30;20186;-84
2022/01/01 01:22:41;;;;;;;7.93;4.63;;;;;;;;;;4776603;29;20197;-86
2022/01/01 01:25:46;;;;;;;6.63;4.63;;;;;;;;;;4788938;29;20589;-87
2022/01/01 01:28:51;;;;;;;6.67;4.40;;;;;;;;;;4777957;29;20236;-85
2022/01/01 01:35:35;;;;;;;6.33;4.20;;;;;;;;;;4793002;29;20224;-84
2022/01/01 01:38:39;;;;;;;7.93;5.27;;;;;;;;;;4788010;29;20657;-84
2022/01/01 01:41:44;;;;;;;7.57;4.93;;;;;;;;;;4780517;30;20209;-86
2022/01/01 01:44:52;;;;;;;5.77;4.33;;;;;;;;;;4770394;30;20593;-85
2022/01/01 01:47:56;;;;;;;8.20;5.17;;;;;;;;;;4774430;29;20661;-84
2022/01/01 01:51:01;;;;;;;6.77;4.43;;;;;;;;;;4760789;30;20182;-84
2022/01/01 01:54:05;;;;;;;10.37;4.83;;;;;;;;;;4759544;30;20558;-84
2022/01/01 01:57:09;;;;;;;11.60;5.47;;;;;;;;;;4780342;30;20213;-86
2022/01/01 02:03:29;;;;;;;8.33;4.97;;;;;;;;;;4780689;30;20586;-85
2022/01/01 02:06:38;;;;;;;9.40;5.07;;;;;;;;;;4786499;29;20241;-84
2022/01/01 02:09:42;;;;;;;10.00;5.30;;;;;;;;;;4780701;30;20229;-84
2022/01/01 02:12:54;;;;;;;9.23;5.20;;;;;;;;;;4771190;30;20189;-84
2022/01/01 02:16:25;;;;;;;7.20;5.40;;;;;;;;;;4769788;30;20225;-86
2022/01/01 02:19:28;;;;;;;8.10;4.93;;;;;;;;;;4779963;29;20193;-84
2022/01/01 02:22:40;;;;;;;8.90;5.30;;;;;;;;;;4758815;30;20670;-85
2022/01/01 02:25:47;;;;;;;8.20;5.90;;;;;;;;;;4770802;30;20225;-85
2022/01/01 02:28:51;;;;;;;8.87;5.87;;;;;;;;;;4768571;30;20229;-85
2022/01/01 02:35:28;;;;;;;11.43;6.03;;;;;;;;;;4773263;30;20229;-84
2022/01/01 02:38:33;;;;;;;8.57;5.83;;;;;;;;;;4773370;30;20551;-85
2022/01/01 02:41:37;;;;;;;7.87;5.93;;;;;;;;;;4760204;30;20181;-86
2022/01/01 02:44:43;;;;;;;11.10;5.90;;;;;;;;;;4758647;30;20193;-83
2022/01/01 02:47:47;;;;;;;8.33;5.57;;;;;;;;;;4779242;30;20205;-84
2022/01/01 02:50:52;;;;;;;8.57;5.87;;;;;;;;;;4758590;30;20182;-85
2022/01/01 02:53:56;;;;;;;9.23;5.70;;;;;;;;;;4758499;29;20202;-85
2022/01/01 02:57:01;;;;;;;8.73;5.87;;;;;;;;;;4770028;30;20189;-86
2022/01/01 03:00:07;;;;;;;7.40;5.30;;;;;;;;;;4768537;30;20185;-85
2022/01/01 03:03:12;;;;;;;7.90;5.40;;;;;;;;;;4768249;30;20193;-85
2022/01/01 05:04:52;;;;;;;7.23;4.00;;;;;;;;;;4701319;30;20693;-92
2022/01/01 09:07:27;;;;;;;5.47;3.80;;;;;;;;;;4814169;24;20251;-87
2022/01/01 09:10:32;;;;;;;7.23;3.47;;;;;;;;;;4776697;29;20561;-87
2022/01/01 09:13:41;;;;;;;5.03;3.30;;;;;;;;;;4777745;29;20530;-85
2022/01/01 09:16:45;;;;;;;7.73;3.50;;;;;;;;;;4759791;30;20233;-88
2022/01/01 09:19:49;;;;;;;5.23;3.93;;;;;;;;;;4769713;30;20193;-85
2022/01/01 09:22:54;;;;;;;5.90;5.03;;;;;;;;;;4759966;30;20185;-85
2022/01/01 09:26:00;;;;;;;9.20;4.70;;;;;;;;;;4759377;30;20574;-87
2022/01/01 09:29:06;;;;;;;6.27;4.43;;;;;;;;;;4759744;30;20186;-86
2022/01/01 09:32:10;;;;;;;7.87;4.80;;;;;;;;;;4759766;30;20526;-87
2022/01/01 09:35:16;;;;;;;7.20;4.10;;;;;;;;;;4759199;30;20189;-86
2022/01/01 09:38:20;;;;;;;6.20;4.23;;;;;;;;;;4769582;30;20185;-88
2022/01/01 09:41:26;;;;;;;7.33;3.90;;;;;;;;;;4789677;30;20209;-88
2022/01/01 09:44:35;;;;;;;5.53;3.03;;;;;;;;;;4789596;30;20205;-89
2022/01/01 09:47:40;;;;;;;5.57;3.90;;;;;;;;;;4779738;30;20197;-86
2022/01/01 09:50:48;;;;;;;9.20;4.03;;;;;;;;;;4769499;30;20229;-86
2022/01/01 09:53:51;;;;;;;5.53;3.50;;;;;;;;;;4789812;30;20190;-89
2022/01/01 09:56:56;;;;;;;6.10;3.90;;;;;;;;;;4779705;30;20221;-88
2022/01/01 10:00:00;;;;;;;5.13;3.80;;;;;;;;;;4779169;30;20190;-88
2022/01/01 10:03:03;;;;;;;4.73;3.83;;;;;;;;;;4786707;29;20205;-88
2022/01/01 10:06:16;;;;;;;5.53;3.90;;;;;;;;;;4788988;30;20241;-88
2022/01/01 10:09:29;;;;;;;5.17;3.80;;;;;;;;;;4758855;30;20194;-88
2022/01/01 10:12:39;;;;;;;5.17;2.87;;;;;;;;;;4769170;30;20186;-87
2022/01/01 10:15:43;;;;;;;4.87;3.60;;;;;;;;;;4793974;29;20570;-88
2022/01/01 10:18:52;;;;;;;5.07;3.80;;;;;;;;;;4786570;29;20189;-88
2022/01/01 10:21:57;;;;;;;5.63;3.87;;;;;;;;;;4786308;29;20661;-88
2022/01/01 10:28:32;;;;;;;6.67;3.97;;;;;;;;;;4796840;29;20197;-88
2022/01/01 10:31:38;;;;;;;8.47;3.90;;;;;;;;;;4778501;30;20693;-88
2022/01/01 10:34:45;;;;;;;25.33;22.47;;;;;;;;;;4783343;29;20669;-88
2022/01/01 10:37:49;;;;;;;11.97;9.13;;;;;;;;;;4786297;29;20189;-88
2022/01/01 10:41:07;;;;;;;8.20;5.77;;;;;;;;;;4786644;29;20177;-88
2022/01/01 10:44:12;;;;;;;6.53;3.73;;;;;;;;;;4796061;29;20189;-88
2022/01/01 10:47:21;;;;;;;6.00;4.27;;;;;;;;;;4786080;29;20574;-87
2022/01/01 10:50:32;;;;;;;7.23;4.20;;;;;;;;;;4785965;29;20220;-87
2022/01/01 10:53:37;;;;;;;5.90;4.00;;;;;;;;;;4796634;29;20185;-88
2022/01/01 10:56:44;;;;;;;6.47;3.90;;;;;;;;;;4788520;29;20578;-86
2022/01/01 10:59:50;;;;;;;4.63;3.43;;;;;;;;;;4776235;29;20208;-87
2022/01/01 11:02:56;;;;;;;6.90;3.00;;;;;;;;;;4774330;29;20189;-90
2022/01/01 11:06:06;;;;;;;4.50;3.17;;;;;;;;;;4795847;29;20228;-88
2022/01/01 11:09:14;;;;;;;5.27;3.63;;;;;;;;;;4785860;29;20189;-88
2022/01/01 11:12:21;;;;;;;8.07;3.33;;;;;;;;;;4785598;29;20704;-87
2022/01/01 11:15:26;;;;;;;8.73;3.47;;;;;;;;;;4786066;29;20209;-85
2022/01/01 11:18:32;;;;;;;5.00;3.43;;;;;;;;;;4785701;29;20184;-85
2022/01/01 11:21:37;;;;;;;5.43;3.13;;;;;;;;;;4785442;29;20197;-87
2022/01/01 11:24:42;;;;;;;3.50;2.87;;;;;;;;;;4775365;29;20193;-85
2022/01/01 11:27:47;;;;;;;4.77;3.07;;;;;;;;;;4775109;29;20211;-87
2022/01/01 11:31:02;;;;;;;4.47;3.20;;;;;;;;;;4796216;29;20212;-85
2022/01/01 11:34:07;;;;;;;4.90;3.30;;;;;;;;;;4775068;29;20200;-87
2022/01/01 11:37:14;;;;;;;6.03;2.97;;;;;;;;;;4795700;29;20302;-86
2022/01/01 11:40:19;;;;;;;4.27;2.73;;;;;;;;;;4775071;29;20188;-87
2022/01/01 11:43:48;;;;;;;4.93;2.67;;;;;;;;;;4785363;29;20196;-85
2022/01/01 11:46:59;;;;;;;4.43;2.93;;;;;;;;;;4785557;29;20577;-85
2022/01/01 11:50:05;;;;;;;3.80;2.57;;;;;;;;;;4785102;29;20185;-87
2022/01/01 11:53:30;;;;;;;5.33;2.90;;;;;;;;;;4757212;30;20182;-86
2022/01/01 11:56:46;;;;;;;4.27;2.70;;;;;;;;;;4766743;30;20237;-87
2022/01/01 11:59:54;;;;;;;4.70;2.33;;;;;;;;;;4767104;30;20197;-84
2022/01/01 12:03:12;;;;;;;3.70;2.30;;;;;;;;;;4775783;29;20193;-87
2022/01/01 12:06:17;;;;;;;3.20;1.90;;;;;;;;;;4795281;29;20236;-86
2022/01/01 12:09:23;;;;;;;2.17;1.30;;;;;;;;;;4785445;29;20239;-87
2022/01/01 12:12:58;;;;;;;3.93;1.50;;;;;;;;;;4785239;29;20208;-88
2022/01/01 12:16:20;;;;;;;3.13;1.60;;;;;;;;;;4785009;29;20221;-86
2022/01/01 12:19:25;;;;;;;1.67;1.40;;;;;;;;;;4784872;29;20193;-86
2022/01/01 12:22:37;;;;;;;1.63;1.30;;;;;;;;;;4775258;29;20185;-86
2022/01/01 12:25:42;;;;;;;1.70;1.20;;;;;;;;;;4784766;29;20224;-86
2022/01/01 12:28:48;;;;;;;2.87;1.70;;;;;;;;;;4785281;29;20185;-86
2022/01/01 12:31:56;;;;;;;3.37;1.43;;;;;;;;;;4774366;29;20605;-88
2022/01/01 12:35:09;;;;;;;1.73;1.23;;;;;;;;;;4784955;29;20208;-86
2022/01/01 12:38:34;;;;;;;4.83;2.43;;;;;;;;;;4795460;29;20197;-86
2022/01/01 12:41:40;;;;;;;18.53;13.67;;;;;;;;;;4794812;29;20182;-86
2022/01/01 12:44:44;;;;;;;4.43;3.90;;;;;;;;;;4774462;29;20205;-86
2022/01/01 12:47:50;;;;;;;2.97;2.20;;;;;;;;;;4784675;29;20189;-88
2022/01/01 12:51:03;;;;;;;2.73;1.80;;;;;;;;;;4794806;29;20189;-85
2022/01/01 12:54:12;;;;;;;5.53;2.10;;;;;;;;;;4794439;29;20193;-86
2022/01/01 12:57:19;;;;;;;2.53;1.90;;;;;;;;;;4781490;29;20573;-86
2022/01/01 13:00:23;;;;;;;4.03;1.70;;;;;;;;;;4772979;29;20197;-88
2022/01/01 13:03:28;;;;;;;4.53;3.03;;;;;;;;;;4774141;29;20205;-86
2022/01/01 13:06:43;;;;;;;5.10;3.10;;;;;;;;;;4784467;29;20596;-86
2022/01/01 13:09:49;;;;;;;4.23;2.47;;;;;;;;;;4776169;29;20194;-88
2022/01/01 13:12:53;;;;;;;3.57;2.60;;;;;;;;;;4777656;29;20224;-89
2022/01/01 13:15:57;;;;;;;4.37;2.30;;;;;;;;;;4787650;29;20220;-88
2022/01/01 13:19:03;;;;;;;2.93;2.10;;;;;;;;;;4790223;30;20213;-88
2022/01/01 13:22:08;;;;;;;2.83;1.70;;;;;;;;;;4769807;30;20198;-87
2022/01/01 13:25:12;;;;;;;3.23;2.20;;;;;;;;;;4790977;29;20213;-87
2022/01/01 13:28:17;;;;;;;2.80;2.07;;;;;;;;;;4769617;30;20189;-88
2022/01/01 13:31:21;;;;;;;3.77;2.10;;;;;;;;;;4780165;30;20665;-88
2022/01/01 13:34:25;;;;;;;3.77;1.87;;;;;;;;;;4769368;30;20186;-88
2022/01/01 13:37:30;;;;;;;2.93;1.90;;;;;;;;;;4759114;30;20225;-88
2022/01/01 13:40:35;;;;;;;2.30;1.50;;;;;;;;;;4769849;30;20213;-88
2022/01/01 13:43:40;;;;;;;4.53;1.90;;;;;;;;;;4769875;30;20185;-87
2022/01/01 13:46:46;;;;;;;4.43;2.30;;;;;;;;;;4759265;30;20229;-88
2022/01/01 13:49:52;;;;;;;2.30;1.87;;;;;;;;;;4759648;30;20190;-88
2022/01/01 13:52:58;;;;;;;2.17;1.77;;;;;;;;;;4769371;30;20670;-88
2022/01/01 13:56:08;;;;;;;4.67;1.93;;;;;;;;;;4769501;30;20225;-88
2022/01/01 13:59:12;;;;;;;2.90;1.97;;;;;;;;;;4779477;30;20190;-88
2022/01/01 14:02:16;;;;;;;3.77;1.73;;;;;;;;;;4769533;30;20527;-88
2022/01/01 14:05:20;;;;;;;3.17;1.70;;;;;;;;;;4769426;30;20186;-88
2022/01/01 14:08:27;;;;;;;2.37;1.73;;;;;;;;;;4775733;30;20189;-86
2022/01/01 14:11:36;;;;;;;2.37;1.63;;;;;;;;;;4760029;30;20218;-86
2022/01/01 14:14:45;;;;;;;2.40;1.67;;;;;;;;;;4771109;30;20638;-85
2022/01/01 14:17:54;;;;;;;4.57;2.20;;;;;;;;;;4780194;30;20198;-85
2022/01/01 14:20:59;;;;;;;3.17;1.77;;;;;;;;;;4758719;30;20201;-86
2022/01/01 14:24:04;;;;;;;2.87;1.90;;;;;;;;;;4769291;30;20186;-86
2022/01/01 14:27:08;;;;;;;3.00;1.77;;;;;;;;;;4779311;30;20221;-86
2022/01/01 14:30:12;;;;;;;2.07;1.70;;;;;;;;;;4759112;30;20622;-86
2022/01/01 14:33:16;;;;;;;2.83;1.77;;;;;;;;;;4758980;30;20217;-86
2022/01/01 14:36:21;;;;;;;3.33;1.87;;;;;;;;;;4769457;30;20229;-86
2022/01/01 14:39:25;;;;;;;3.70;2.00;;;;;;;;;;4768969;30;20189;-86
2022/01/01 14:42:29;;;;;;;3.67;2.10;;;;;;;;;;4768878;30;20185;-85
2022/01/01 14:45:35;;;;;;;4.23;2.10;;;;;;;;;;4770361;29;20229;-86
2022/01/01 14:48:44;;;;;;;3.57;1.77;;;;;;;;;;4776669;29;20181;-86
2022/01/01 14:51:57;;;;;;;3.37;1.90;;;;;;;;;;4776191;29;20217;-86
2022/01/01 14:55:19;;;;;;;2.10;1.40;;;;;;;;;;4786952;29;20189;-85
2022/01/01 14:58:32;;;;;;;3.03;1.40;;;;;;;;;;4784839;29;20225;-86
2022/01/01 15:01:37;;;;;;;2.57;1.50;;;;;;;;;;4781952;29;20612;-85
2022/01/01 15:04:45;;;;;;;1.73;1.37;;;;;;;;;;4779835;30;20210;-87
2022/01/01 15:07:54;;;;;;;3.60;1.70;;;;;;;;;;4808052;24;20712;-86
2022/01/01 15:11:00;;;;;;;2.67;1.70;;;;;;;;;;4786053;29;20196;-86
2022/01/01 15:14:04;;;;;;;3.63;1.87;;;;;;;;;;4775774;29;20189;-86
2022/01/01 15:17:09;;;;;;;3.60;1.40;;;;;;;;;;4774504;30;20229;-87
2022/01/01 15:20:14;;;;;;;1.23;1.10;;;;;;;;;;4768380;30;20209;-86
2022/01/01 15:23:25;;;;;;;3.57;1.73;;;;;;;;;;4768376;30;20193;-87
2022/01/01 15:26:30;;;;;;;2.77;1.60;;;;;;;;;;4779049;29;20226;-86
2022/01/01 15:36:28;;;;;;;3.37;1.90;;;;;;;;;;4760372;29;20230;-86
2022/01/01 15:39:40;;;;;;;5.10;1.80;;;;;;;;;;4768463;30;20189;-86
2022/01/01 15:42:45;;;;;;;3.60;1.57;;;;;;;;;;4778473;30;20182;-86
2022/01/01 15:45:51;;;;;;;3.43;1.50;;;;;;;;;;4768258;29;20186;-86
2022/01/01 15:48:58;;;;;;;2.33;1.63;;;;;;;;;;4767916;30;20190;-86
2022/01/01 15:52:03;;;;;;;4.27;1.53;;;;;;;;;;4779193;30;20225;-86
2022/01/01 15:55:08;;;;;;;2.00;1.53;;;;;;;;;;4778293;30;20646;-86
2022/01/01 15:58:18;;;;;;;2.40;1.67;;;;;;;;;;4767770;30;20190;-86
2022/01/01 16:01:33;;;;;;;2.00;1.70;;;;;;;;;;4768744;30;20201;-86
2022/01/01 16:05:09;;;;;;;2.80;1.70;;;;;;;;;;4768467;30;20186;-87
2022/01/01 16:08:31;;;;;;;5.63;1.90;;;;;;;;;;4758482;30;20646;-87
2022/01/01 16:11:39;;;;;;;3.63;2.37;;;;;;;;;;4778561;30;20186;-90
2022/01/01 16:14:51;;;;;;;3.57;2.30;;;;;;;;;;4768197;30;20190;-89
2022/01/01 16:17:58;;;;;;;4.17;1.77;;;;;;;;;;4769222;30;20221;-86
2022/01/01 16:21:05;;;;;;;2.00;1.57;;;;;;;;;;4768105;30;20193;-87
2022/01/01 16:24:12;;;;;;;2.23;1.57;;;;;;;;;;4767509;30;20197;-87
2022/01/01 16:27:19;;;;;;;2.67;1.83;;;;;;;;;;4739622;30;20237;-88
2022/01/01 16:30:35;;;;;;;3.57;1.83;;;;;;;;;;4749588;30;20182;-87
2022/01/01 16:33:41;;;;;;;3.30;1.73;;;;;;;;;;4760154;30;20710;-87
2022/01/01 16:37:49;;;;;;;;;;;;;;;;;;;;;
2022/01/01 16:42:08;;;;;;;2.47;1.77;;;;;;;;;;4771609;30;20183;-87
2022/01/01 16:45:18;;;;;;;3.80;1.97;;;;;;;;;;4743673;30;20642;-87
2022/01/01 16:48:33;;;;;;;5.63;2.27;;;;;;;;;;4763416;30;20218;-87
2022/01/01 16:51:45;;;;;;;4.27;2.23;;;;;;;;;;4753152;30;20206;-87
2022/01/01 16:54:51;;;;;;;2.60;2.17;;;;;;;;;;4753416;30;20187;-86
2022/01/01 16:58:14;;;;;;;3.27;2.30;;;;;;;;;;4763173;30;20222;-87
2022/01/01 17:01:24;;;;;;;3.57;2.07;;;;;;;;;;4764891;30;20201;-86
2022/01/01 17:04:34;;;;;;;2.67;2.30;;;;;;;;;;4780430;30;20202;-87
2022/01/01 17:07:48;;;;;;;6.30;2.80;;;;;;;;;;4753557;30;20241;-86
2022/01/01 17:10:53;;;;;;;3.63;2.50;;;;;;;;;;4752539;30;20766;-87
2022/01/01 17:14:08;;;;;;;5.53;2.83;;;;;;;;;;4762655;30;20667;-87
2022/01/01 17:17:54;;;;;;;6.90;2.93;;;;;;;;;;4754047;30;20226;-87
2022/01/01 17:21:03;;;;;;;6.20;2.77;;;;;;;;;;4752517;30;20218;-87
2022/01/01 17:24:17;;;;;;;3.40;2.60;;;;;;;;;;4780531;30;20189;-87
2022/01/01 17:27:46;;;;;;;4.63;3.00;;;;;;;;;;4781000;30;20534;-87
2022/01/01 17:30:55;;;;;;;4.17;3.00;;;;;;;;;;4752637;30;20186;-87
2022/01/01 17:37:13;;;;;;;4.37;3.00;;;;;;;;;;4762786;30;20226;-87
2022/01/01 17:40:22;;;;;;;7.23;2.70;;;;;;;;;;4762204;30;20559;-87
2022/01/01 17:43:31;;;;;;;4.60;2.90;;;;;;;;;;4762917;30;20190;-87
2022/01/01 17:46:39;;;;;;;3.53;2.60;;;;;;;;;;4762663;30;20230;-87
2022/01/01 17:49:52;;;;;;;4.97;2.60;;;;;;;;;;4751629;30;20209;-86
2022/01/01 17:53:11;;;;;;;8.13;2.93;;;;;;;;;;4771988;30;20590;-86
2022/01/01 17:56:20;;;;;;;3.77;2.43;;;;;;;;;;4761991;30;20226;-87
2022/01/01 17:59:26;;;;;;;3.73;2.77;;;;;;;;;;4761697;30;20186;-86
2022/01/01 18:02:34;;;;;;;4.27;3.17;;;;;;;;;;4762190;30;20544;-87
2022/01/01 18:05:42;;;;;;;9.67;5.17;;;;;;;;;;4761277;30;20210;-88
2022/01/01 18:08:57;;;;;;;4.77;4.07;;;;;;;;;;4761917;30;20210;-86
2022/01/01 18:12:01;;;;;;;8.23;4.73;;;;;;;;;;4761679;30;20186;-86
2022/01/01 18:15:07;;;;;;;10.93;6.60;;;;;;;;;;4751604;30;20206;-87
2022/01/01 18:18:19;;;;;;;9.10;6.67;;;;;;;;;;4762004;30;20190;-86
2022/01/01 18:21:24;;;;;;;11.97;7.17;;;;;;;;;;4751758;30;20202;-86
2022/01/01 18:24:40;;;;;;;7.87;5.47;;;;;;;;;;4761697;30;20624;-86
2022/01/01 18:27:52;;;;;;;8.33;5.87;;;;;;;;;;4751255;30;20576;-87
2022/01/01 18:31:02;;;;;;;6.90;5.20;;;;;;;;;;4751547;30;20187;-87
2022/01/01 18:34:07;;;;;;;8.50;5.13;;;;;;;;;;4769041;30;20213;-87
2022/01/01 18:37:14;;;;;;;7.97;5.03;;;;;;;;;;4758600;30;20229;-87
2022/01/01 18:40:26;;;;;;;8.63;5.30;;;;;;;;;;4769911;30;20205;-87
2022/01/01 18:43:37;;;;;;;12.83;4.97;;;;;;;;;;4768936;30;20186;-87
2022/01/01 18:46:46;;;;;;;8.70;4.83;;;;;;;;;;4761231;30;20225;-87
2022/01/01 18:49:54;;;;;;;7.10;4.60;;;;;;;;;;4757265;30;20202;-87
2022/01/01 18:53:05;;;;;;;5.53;4.23;;;;;;;;;;4768335;30;20566;-87
2022/01/01 18:56:13;;;;;;;6.80;4.50;;;;;;;;;;4768950;29;20221;-86
2022/01/01 18:59:28;;;;;;;5.17;4.03;;;;;;;;;;4768486;30;20202;-87
2022/01/01 19:02:37;;;;;;;10.70;4.60;;;;;;;;;;4758349;30;20198;-87
2022/01/01 19:05:46;;;;;;;8.57;5.60;;;;;;;;;;4767172;29;20215;-87
2022/01/01 19:08:55;;;;;;;7.27;5.37;;;;;;;;;;4740496;30;20643;-87
2022/01/01 19:12:24;;;;;;;11.20;5.70;;;;;;;;;;4761141;30;20186;-86
2022/01/01 19:15:32;;;;;;;7.97;4.90;;;;;;;;;;4740797;30;20182;-87
2022/01/01 19:18:37;;;;;;;9.13;5.30;;;;;;;;;;4731215;30;20191;-87
2022/01/01 19:21:43;;;;;;;12.17;6.63;;;;;;;;;;4750983;30;20186;-87
2022/01/01 19:24:49;;;;;;;9.00;5.90;;;;;;;;;;4750634;30;20182;-86
2022/01/01 19:27:59;;;;;;;7.37;5.40;;;;;;;;;;4754894;30;20225;-87
2022/01/01 19:31:03;;;;;;;9.87;5.63;;;;;;;;;;4778112;30;20201;-87
2022/01/01 19:34:08;;;;;;;9.20;5.63;;;;;;;;;;4778496;30;20222;-86
2022/01/01 19:37:17;;;;;;;11.50;5.70;;;;;;;;;;4778675;30;20225;-86
2022/01/01 19:40:22;;;;;;;8.77;5.77;;;;;;;;;;4757688;30;20185;-86
2022/01/01 19:43:33;;;;;;;10.87;6.27;;;;;;;;;;4747771;30;20252;-88
2022/01/01 19:46:49;;;;;;;10.53;5.73;;;;;;;;;;4749811;29;20230;-87
2022/01/01 19:50:02;;;;;;;7.53;5.47;;;;;;;;;;4758433;30;20193;-86
2022/01/01 19:53:12;;;;;;;9.00;6.07;;;;;;;;;;4788404;30;20230;-87
2022/01/01 19:56:20;;;;;;;10.00;5.80;;;;;;;;;;4767729;29;20221;-87
2022/01/01 19:59:26;;;;;;;7.40;5.13;;;;;;;;;;4777897;30;20197;-86
2022/01/01 20:02:30;;;;;;;8.47;6.27;;;;;;;;;;4777755;30;20240;-87
2022/01/01 20:05:44;;;;;;;13.53;6.90;;;;;;;;;;4777500;29;20205;-87
2022/01/01 20:08:51;;;;;;;11.10;7.50;;;;;;;;;;4749856;30;20544;-86
2022/01/01 20:12:01;;;;;;;9.90;7.00;;;;;;;;;;4741358;30;20538;-87
2022/01/01 20:15:06;;;;;;;11.83;7.93;;;;;;;;;;4750095;30;20238;-87
2022/01/01 20:18:10;;;;;;;14.67;10.43;;;;;;;;;;4749661;30;20555;-86
2022/01/01 20:21:14;;;;;;;14.27;9.57;;;;;;;;;;4750376;30;20209;-87
2022/01/01 20:24:22;;;;;;;161.23;57.33;;;;;;;;;;4750056;30;20190;-87
2022/01/01 20:27:27;;;;;;;26.07;13.73;;;;;;;;;;4759997;30;20237;-86
2022/01/01 20:30:31;;;;;;;17.63;10.67;;;;;;;;;;4759950;30;20190;-86
2022/01/01 20:33:35;;;;;;;19.57;12.20;;;;;;;;;;4749950;30;20557;-87
2022/01/01 20:36:39;;;;;;;17.43;9.90;;;;;;;;;;4759800;30;20567;-87
2022/01/01 20:39:43;;;;;;;18.40;11.17;;;;;;;;;;4749633;30;20194;-86
2022/01/01 20:42:47;;;;;;;16.37;10.10;;;;;;;;;;4769863;30;20194;-87
2022/01/01 20:45:55;;;;;;;14.50;10.00;;;;;;;;;;4759660;30;20186;-86
2022/01/01 20:49:00;;;;;;;15.00;10.40;;;;;;;;;;4742336;30;20198;-87
2022/01/01 20:52:06;;;;;;;15.37;9.93;;;;;;;;;;4759540;30;20186;-87
2022/01/01 20:56:01;;;;;;;15.67;9.60;;;;;;;;;;4760059;30;20234;-87
2022/01/01 20:59:21;;;;;;;12.27;8.57;;;;;;;;;;4755390;30;20191;-86
2022/01/01 21:02:36;;;;;;;13.07;8.00;;;;;;;;;;4761231;30;20558;-87
2022/01/01 21:09:40;;;;;;;10.53;7.47;;;;;;;;;;4787559;24;20241;-89
2022/01/01 21:12:45;;;;;;;14.00;7.97;;;;;;;;;;4777761;30;20190;-89
2022/01/01 21:15:49;;;;;;;15.07;7.90;;;;;;;;;;4767035;30;20190;-90
2022/01/01 21:18:54;;;;;;;12.83;7.47;;;;;;;;;;4754562;30;20222;-89
2022/01/01 21:21:58;;;;;;;13.97;7.63;;;;;;;;;;4759835;30;20187;-89
2022/01/01 21:25:04;;;;;;;12.97;8.13;;;;;;;;;;4759511;30;20182;-90
2022/01/01 21:28:08;;;;;;;14.13;8.57;;;;;;;;;;4759713;30;20222;-90
2022/01/01 21:31:31;;;;;;;12.60;8.90;;;;;;;;;;4765607;30;20198;-90
2022/01/01 21:34:53;;;;;;;14.80;8.80;;;;;;;;;;4765164;30;20211;-90
2022/01/01 21:38:18;;;;;;;15.90;8.57;;;;;;;;;;4765274;30;20230;-89
2022/01/01 21:41:41;;;;;;;12.23;7.43;;;;;;;;;;4773292;30;20202;-90
2022/01/01 21:45:04;;;;;;;14.10;8.37;;;;;;;;;;4772710;30;20195;-90
2022/01/01 21:48:27;;;;;;;13.23;8.47;;;;;;;;;;4773019;30;20225;-90
2022/01/01 21:51:49;;;;;;;13.07;8.00;;;;;;;;;;4772849;30;20191;-89
2022/01/01 21:55:12;;;;;;;13.43;8.00;;;;;;;;;;4764285;30;20572;-90
2022/01/01 21:58:35;;;;;;;14.27;8.43;;;;;;;;;;4764900;30;20226;-89
2022/01/01 22:01:58;;;;;;;14.93;9.20;;;;;;;;;;4772766;30;20199;-89
2022/01/01 22:05:21;;;;;;;14.77;8.97;;;;;;;;;;4768559;30;20187;-90
2022/01/01 22:08:43;;;;;;;13.83;9.00;;;;;;;;;;4773503;30;20709;-89
2022/01/01 22:12:06;;;;;;;15.27;8.40;;;;;;;;;;4765007;30;20203;-89
2022/01/01 22:15:29;;;;;;;12.83;8.30;;;;;;;;;;4764564;30;20222;-89
2022/01/01 22:18:52;;;;;;;13.93;8.83;;;;;;;;;;4772558;30;20230;-89
2022/01/01 22:22:14;;;;;;;12.80;7.80;;;;;;;;;;4764169;30;20190;-90
2022/01/01 22:25:37;;;;;;;10.30;6.83;;;;;;;;;;4772386;30;20187;-90
2022/01/01 22:29:00;;;;;;;10.10;7.17;;;;;;;;;;4771840;30;20234;-90
2022/01/01 22:32:22;;;;;;;12.33;7.30;;;;;;;;;;4764255;30;20194;-90
2022/01/01 22:35:45;;;;;;;12.40;7.63;;;;;;;;;;4763972;30;20214;-90
2022/01/01 22:39:08;;;;;;;12.63;7.43;;;;;;;;;;4764351;30;20234;-89
2022/01/01 22:42:31;;;;;;;12.17;7.43;;;;;;;;;;4764339;30;20643;-90
2022/01/01 22:45:53;;;;;;;12.20;7.73;;;;;;;;;;4764224;30;20190;-90
2022/01/01 22:49:15;;;;;;;12.23;8.13;;;;;;;;;;4763689;30;20226;-90
2022/01/01 22:52:38;;;;;;;12.27;8.43;;;;;;;;;;4764262;30;20195;-89
2022/01/01 22:56:01;;;;;;;12.57;8.13;;;;;;;;;;4764196;30;20183;-90
2022/01/01 22:59:24;;;;;;;13.03;8.57;;;;;;;;;;4763822;30;20222;-89
2022/01/01 23:02:46;;;;;;;12.60;7.30;;;;;;;;;;4763943;30;20194;-89
2022/01/01 23:06:11;;;;;;;11.33;7.47;;;;;;;;;;4771870;30;20191;-89
2022/01/01 23:09:35;;;;;;;12.53;7.50;;;;;;;;;;4771468;30;20237;-89
2022/01/01 23:12:59;;;;;;;10.80;6.73;;;;;;;;;;4763533;30;20203;-89
2022/01/01 23:16:28;;;;;;;13.20;7.50;;;;;;;;;;4755680;30;20187;-90
2022/01/01 23:19:51;;;;;;;14.23;8.13;;;;;;;;;;4763074;30;20186;-89
2022/01/01 23:23:20;;;;;;;11.73;7.63;;;;;;;;;;4763496;30;20194;-89
2022/01/01 23:26:48;;;;;;;11.50;7.47;;;;;;;;;;4755111;30;20358;-90
2022/01/01 23:30:13;;;;;;;9.53;7.03;;;;;;;;;;4771983;30;20182;-89
2022/01/01 23:33:38;;;;;;;11.33;7.60;;;;;;;;;;4771479;30;20194;-89
2022/01/01 23:37:02;;;;;;;10.23;6.50;;;;;;;;;;4755306;30;20194;-89
2022/01/01 23:40:25;;;;;;;11.63;7.30;;;;;;;;;;4745374;30;20191;-89
2022/01/01 23:43:49;;;;;;;10.83;7.07;;;;;;;;;;4753891;30;20192;-90
2022/01/01 23:47:11;;;;;;;9.60;6.93;;;;;;;;;;4745607;30;20195;-90
2022/01/01 23:50:39;;;;;;;13.70;6.97;;;;;;;;;;4753153;30;20187;-89
2022/01/01 23:54:06;;;;;;;10.53;7.20;;;;;;;;;;4753130;30;20531;-90
2022/01/01 23:57:43;;;;;;;12.53;7.20;;;;;;;;;;4753037;30;20552;-89
